Orleans, Massachusetts
Current Conditions -  °F | °C
As of 4:36 AM on Wednesday 22 Oct 2014 (Local Time) from KCQX Reporting Station
Overcast Overcast  
Wind Chill: 57°   Ceiling: 500
Heat Index: 57°   Visibility: 9mi
Dew Point: 56°   Wind: 6mph
Humidity: 96%   Direction: 30°NNE
Pressure: 29.93"   Gusts: NA
Location:  41.79°N, 69.99°W
Report Text: KCQX 220836Z AUTO 03005KT 9SM OVC005 14/13 A2993 RMK AO2 CIG 003V009 T01390133
Loading
Personal Weather Stations






























Interactive Weather Map
Tropical Storm Tracking
New forecast layout! Learn more

10-Day Weather Forecast

Advertisements
Track Severe Weather on mobile